sensor_id;sensor_type;location;lat;lon;timestamp;pressure;altitude;pressure_sealevel;temperature;humidity
12969;BME280;6549;53.128;8.182;2023-04-19T00:02:49;102843.44;;;7.40;100.00
12969;BME280;6549;53.128;8.182;2023-04-19T00:05:49;102843.22;;;7.28;100.00
12969;BME280;6549;53.128;8.182;2023-04-19T00:08:50;102838.13;;;7.12;100.00
12969;BME280;6549;53.128;8.182;2023-04-19T00:11:51;102836.00;;;7.09;100.00
12969;BME280;6549;53.128;8.182;2023-04-19T00:14:51;102832.47;;;7.09;100.00
12969;BME280;6549;53.128;8.182;2023-04-19T00:17:51;102838.38;;;7.25;100.00
12969;BME280;6549;53.128;8.182;2023-04-19T00:20:52;102828.84;;;7.00;100.00
12969;BME280;6549;53.128;8.182;2023-04-19T00:23:52;102835.69;;;6.89;100.00
12969;BME280;6549;53.128;8.182;2023-04-19T00:26:53;102829.25;;;6.85;100.00
12969;BME280;6549;53.128;8.182;2023-04-19T00:29:53;102830.13;;;6.94;100.00
12969;BME280;6549;53.128;8.182;2023-04-19T00:32:53;102827.88;;;6.96;100.00
12969;BME280;6549;53.128;8.182;2023-04-19T00:35:54;102830.06;;;6.85;100.00
12969;BME280;6549;53.128;8.182;2023-04-19T00:38:54;102817.69;;;6.88;100.00
12969;BME280;6549;53.128;8.182;2023-04-19T00:41:54;102813.31;;;6.87;100.00
12969;BME280;6549;53.128;8.182;2023-04-19T00:44:56;102812.16;;;6.79;100.00
12969;BME280;6549;53.128;8.182;2023-04-19T00:47:56;102814.22;;;6.60;100.00
12969;BME280;6549;53.128;8.182;2023-04-19T00:50:57;102821.91;;;6.71;100.00
12969;BME280;6549;53.128;8.182;2023-04-19T00:53:57;102820.66;;;6.77;100.00
12969;BME280;6549;53.128;8.182;2023-04-19T00:56:58;102816.75;;;6.70;100.00
12969;BME280;6549;53.128;8.182;2023-04-19T00:59:59;102819.50;;;6.56;100.00
12969;BME280;6549;53.128;8.182;2023-04-19T01:02:59;102824.06;;;6.61;100.00
12969;BME280;6549;53.128;8.182;2023-04-19T01:06:00;102810.22;;;6.57;100.00
12969;BME280;6549;53.128;8.182;2023-04-19T01:09:00;102819.50;;;6.56;100.00
12969;BME280;6549;53.128;8.182;2023-04-19T01:12:01;102818.41;;;6.57;100.00
12969;BME280;6549;53.128;8.182;2023-04-19T01:15:02;102827.47;;;6.66;100.00
12969;BME280;6549;53.128;8.182;2023-04-19T01:18:03;102825.59;;;6.53;100.00
12969;BME280;6549;53.128;8.182;2023-04-19T01:21:03;102825.00;;;6.43;100.00
12969;BME280;6549;53.128;8.182;2023-04-19T01:24:04;102827.25;;;6.41;100.00
12969;BME280;6549;53.128;8.182;2023-04-19T01:27:04;102821.38;;;6.33;100.00
12969;BME280;6549;53.128;8.182;2023-04-19T01:30:05;102820.81;;;6.23;100.00
12969;BME280;6549;53.128;8.182;2023-04-19T01:33:06;102830.09;;;6.36;100.00
12969;BME280;6549;53.128;8.182;2023-04-19T01:36:06;102827.47;;;6.30;100.00
12969;BME280;6549;53.128;8.182;2023-04-19T01:39:07;102821.28;;;6.25;100.00
12969;BME280;6549;53.128;8.182;2023-04-19T01:42:07;102825.47;;;6.22;100.00
12969;BME280;6549;53.128;8.182;2023-04-19T01:45:08;102825.38;;;6.14;100.00
12969;BME280;6549;53.128;8.182;2023-04-19T01:48:08;102828.50;;;6.07;100.00
12969;BME280;6549;53.128;8.182;2023-04-19T01:51:08;102829.50;;;5.98;100.00
12969;BME280;6549;53.128;8.182;2023-04-19T01:54:09;102831.56;;;5.92;100.00
12969;BME280;6549;53.128;8.182;2023-04-19T01:57:09;102828.00;;;5.92;100.00
12969;BME280;6549;53.128;8.182;2023-04-19T02:00:10;102823.25;;;5.83;100.00
12969;BME280;6549;53.128;8.182;2023-04-19T02:03:11;102817.25;;;5.81;100.00
12969;BME280;6549;53.128;8.182;2023-04-19T02:06:12;102805.34;;;5.77;100.00
12969;BME280;6549;53.128;8.182;2023-04-19T02:09:12;102817.28;;;6.09;100.00
12969;BME280;6549;53.128;8.182;2023-04-19T02:12:12;102813.56;;;5.91;100.00
12969;BME280;6549;53.128;8.182;2023-04-19T02:15:13;102806.97;;;5.78;100.00
12969;BME280;6549;53.128;8.182;2023-04-19T02:18:14;102812.75;;;5.91;100.00
12969;BME280;6549;53.128;8.182;2023-04-19T02:21:16;102812.00;;;5.71;100.00
12969;BME280;6549;53.128;8.182;2023-04-19T02:24:16;102815.44;;;5.63;100.00
12969;BME280;6549;53.128;8.182;2023-04-19T02:27:17;102813.50;;;5.50;100.00
12969;BME280;6549;53.128;8.182;2023-04-19T02:30:17;102814.00;;;5.52;100.00
12969;BME280;6549;53.128;8.182;2023-04-19T02:33:18;102813.50;;;5.50;100.00
12969;BME280;6549;53.128;8.182;2023-04-19T02:36:18;102813.50;;;5.50;100.00
12969;BME280;6549;53.128;8.182;2023-04-19T02:39:18;102824.38;;;5.36;100.00
12969;BME280;6549;53.128;8.182;2023-04-19T02:42:18;102820.53;;;5.37;100.00
12969;BME280;6549;53.128;8.182;2023-04-19T02:45:19;102823.84;;;5.21;100.00
12969;BME280;6549;53.128;8.182;2023-04-19T02:48:19;102828.78;;;5.19;100.00
12969;BME280;6549;53.128;8.182;2023-04-19T02:51:20;102827.06;;;5.23;100.00
12969;BME280;6549;53.128;8.182;2023-04-19T02:54:20;102829.47;;;5.11;100.00
12969;BME280;6549;53.128;8.182;2023-04-19T02:57:20;102833.81;;;5.12;100.00
12969;BME280;6549;53.128;8.182;2023-04-19T03:00:21;102829.09;;;5.17;100.00
12969;BME280;6549;53.128;8.182;2023-04-19T03:03:21;102826.91;;;5.01;100.00
12969;BME280;6549;53.128;8.182;2023-04-19T03:06:21;102832.44;;;4.95;100.00
12969;BME280;6549;53.128;8.182;2023-04-19T03:09:22;102832.13;;;4.97;100.00
12969;BME280;6549;53.128;8.182;2023-04-19T03:12:22;102822.66;;;4.94;100.00
12969;BME280;6549;53.128;8.182;2023-04-19T03:15:22;102822.28;;;4.82;100.00
12969;BME280;6549;53.128;8.182;2023-04-19T03:18:23;102829.00;;;4.71;100.00
12969;BME280;6549;53.128;8.182;2023-04-19T03:21:23;102835.03;;;4.68;100.00
12969;BME280;6549;53.128;8.182;2023-04-19T03:24:27;102820.97;;;4.61;100.00
12969;BME280;6549;53.128;8.182;2023-04-19T03:27:28;102823.69;;;4.61;100.00
12969;BME280;6549;53.128;8.182;2023-04-19T03:30:28;102817.75;;;4.59;100.00
12969;BME280;6549;53.128;8.182;2023-04-19T03:33:28;102814.06;;;4.50;100.00
12969;BME280;6549;53.128;8.182;2023-04-19T03:36:29;102821.22;;;4.46;100.00
12969;BME280;6549;53.128;8.182;2023-04-19T03:39:30;102812.16;;;4.50;100.00
12969;BME280;6549;53.128;8.182;2023-04-19T03:42:31;102820.41;;;4.45;100.00
12969;BME280;6549;53.128;8.182;2023-04-19T03:45:31;102820.69;;;4.44;100.00
12969;BME280;6549;53.128;8.182;2023-04-19T03:48:32;102811.56;;;4.53;100.00
12969;BME280;6549;53.128;8.182;2023-04-19T03:51:32;102817.22;;;4.38;100.00
12969;BME280;6549;53.128;8.182;2023-04-19T03:54:32;102814.34;;;4.30;100.00
12969;BME280;6549;53.128;8.182;2023-04-19T03:57:33;102812.59;;;4.20;100.00
12969;BME280;6549;53.128;8.182;2023-04-19T04:00:35;102819.47;;;4.13;100.00
12969;BME280;6549;53.128;8.182;2023-04-19T04:03:35;102820.13;;;4.04;100.00
12969;BME280;6549;53.128;8.182;2023-04-19T04:06:35;102825.59;;;3.99;100.00
12969;BME280;6549;53.128;8.182;2023-04-19T04:09:36;102825.66;;;3.94;100.00
12969;BME280;6549;53.128;8.182;2023-04-19T04:12:36;102818.91;;;3.92;100.00
12969;BME280;6549;53.128;8.182;2023-04-19T04:15:36;102822.50;;;3.87;100.00
12969;BME280;6549;53.128;8.182;2023-04-19T04:18:37;102819.03;;;3.82;100.00
12969;BME280;6549;53.128;8.182;2023-04-19T04:21:37;102818.50;;;3.80;100.00
12969;BME280;6549;53.128;8.182;2023-04-19T04:24:38;102826.13;;;3.78;100.00
12969;BME280;6549;53.128;8.182;2023-04-19T04:27:41;102819.94;;;3.72;100.00
12969;BME280;6549;53.128;8.182;2023-04-19T04:30:43;102824.00;;;3.75;100.00
12969;BME280;6549;53.128;8.182;2023-04-19T04:33:44;102837.88;;;3.73;100.00
12969;BME280;6549;53.128;8.182;2023-04-19T04:36:45;102833.84;;;3.71;100.00
12969;BME280;6549;53.128;8.182;2023-04-19T04:39:46;102840.59;;;3.73;100.00
12969;BME280;6549;53.128;8.182;2023-04-19T04:42:46;102839.47;;;3.79;100.00
12969;BME280;6549;53.128;8.182;2023-04-19T04:45:47;102837.56;;;3.80;100.00
12969;BME280;6549;53.128;8.182;2023-04-19T04:48:47;102836.97;;;3.83;100.00
12969;BME280;6549;53.128;8.182;2023-04-19T04:51:47;102835.88;;;3.84;100.00
12969;BME280;6549;53.128;8.182;2023-04-19T04:54:48;102833.44;;;3.82;100.00
12969;BME280;6549;53.128;8.182;2023-04-19T04:57:48;102837.28;;;3.76;100.00
12969;BME280;6549;53.128;8.182;2023-04-19T05:00:48;102839.78;;;3.73;100.00
12969;BME280;6549;53.128;8.182;2023-04-19T05:03:50;102846.84;;;3.74;100.00
12969;BME280;6549;53.128;8.182;2023-04-19T05:06:51;102837.00;;;3.78;100.00
12969;BME280;6549;53.128;8.182;2023-04-19T05:09:51;102843.16;;;3.88;100.00
12969;BME280;6549;53.128;8.182;2023-04-19T05:12:51;102835.56;;;4.09;100.00
12969;BME280;6549;53.128;8.182;2023-04-19T05:15:52;102829.56;;;4.31;100.00
12969;BME280;6549;53.128;8.182;2023-04-19T05:18:52;102832.75;;;4.57;100.00
12969;BME280;6549;53.128;8.182;2023-04-19T05:21:52;102836.72;;;4.83;100.00
12969;BME280;6549;53.128;8.182;2023-04-19T05:24:53;102823.97;;;4.97;100.00
12969;BME280;6549;53.128;8.182;2023-04-19T05:27:54;102820.91;;;5.17;100.00
12969;BME280;6549;53.128;8.182;2023-04-19T05:30:55;102823.19;;;5.42;100.00
12969;BME280;6549;53.128;8.182;2023-04-19T05:33:55;102825.16;;;5.69;100.00
12969;BME280;6549;53.128;8.182;2023-04-19T05:36:55;102827.50;;;5.90;100.00
12969;BME280;6549;53.128;8.182;2023-04-19T05:39:56;102823.03;;;6.21;100.00
12969;BME280;6549;53.128;8.182;2023-04-19T05:42:57;102828.97;;;6.50;100.00
12969;BME280;6549;53.128;8.182;2023-04-19T05:45:57;102827.75;;;6.78;100.00
12969;BME280;6549;53.128;8.182;2023-04-19T05:48:57;102833.34;;;6.96;100.00
12969;BME280;6549;53.128;8.182;2023-04-19T05:51:58;102833.09;;;7.06;100.00
12969;BME280;6549;53.128;8.182;2023-04-19T05:54:58;102834.81;;;7.24;100.00
12969;BME280;6549;53.128;8.182;2023-04-19T05:57:58;102833.63;;;7.39;100.00
12969;BME280;6549;53.128;8.182;2023-04-19T06:01:00;102832.91;;;7.55;100.00
12969;BME280;6549;53.128;8.182;2023-04-19T06:04:01;102827.91;;;7.57;100.00
12969;BME280;6549;53.128;8.182;2023-04-19T06:07:01;102832.19;;;7.72;100.00
12969;BME280;6549;53.128;8.182;2023-04-19T06:10:01;102832.09;;;7.86;100.00
12969;BME280;6549;53.128;8.182;2023-04-19T06:13:02;102839.81;;;7.92;100.00
12969;BME280;6549;53.128;8.182;2023-04-19T06:16:03;102836.16;;;8.05;100.00
12969;BME280;6549;53.128;8.182;2023-04-19T06:19:03;102838.75;;;8.10;100.00
12969;BME280;6549;53.128;8.182;2023-04-19T06:22:03;102838.31;;;8.26;100.00
12969;BME280;6549;53.128;8.182;2023-04-19T06:25:04;102848.22;;;8.52;100.00
12969;BME280;6549;53.128;8.182;2023-04-19T06:28:04;102841.44;;;8.58;100.00
12969;BME280;6549;53.128;8.182;2023-04-19T06:31:05;102836.91;;;8.45;100.00
12969;BME280;6549;53.128;8.182;2023-04-19T06:34:05;102836.63;;;8.55;100.00
12969;BME280;6549;53.128;8.182;2023-04-19T06:37:05;102844.38;;;8.88;100.00
12969;BME280;6549;53.128;8.182;2023-04-19T06:40:06;102834.06;;;8.85;100.00
12969;BME280;6549;53.128;8.182;2023-04-19T06:43:07;102830.00;;;8.82;100.00
12969;BME280;6549;53.128;8.182;2023-04-19T06:46:08;102831.44;;;9.14;100.00
12969;BME280;6549;53.128;8.182;2023-04-19T06:49:08;102836.75;;;9.19;100.00
12969;BME280;6549;53.128;8.182;2023-04-19T06:52:09;102833.25;;;9.57;100.00
12969;BME280;6549;53.128;8.182;2023-04-19T06:55:09;102840.91;;;9.51;100.00
12969;BME280;6549;53.128;8.182;2023-04-19T06:58:10;102826.16;;;9.64;100.00
12969;BME280;6549;53.128;8.182;2023-04-19T07:01:11;102836.88;;;9.86;100.00
12969;BME280;6549;53.128;8.182;2023-04-19T07:04:12;102831.22;;;9.83;100.00
12969;BME280;6549;53.128;8.182;2023-04-19T07:07:13;102830.50;;;10.03;100.00
12969;BME280;6549;53.128;8.182;2023-04-19T07:10:13;102825.66;;;10.00;100.00
12969;BME280;6549;53.128;8.182;2023-04-19T07:13:13;102830.44;;;10.41;100.00
12969;BME280;6549;53.128;8.182;2023-04-19T07:16:14;102824.75;;;10.88;100.00
12969;BME280;6549;53.128;8.182;2023-04-19T07:19:14;102832.22;;;10.66;94.23
12969;BME280;6549;53.128;8.182;2023-04-19T07:22:15;102824.56;;;10.72;93.94
12969;BME280;6549;53.128;8.182;2023-04-19T07:25:15;102826.06;;;10.40;91.36
12969;BME280;6549;53.128;8.182;2023-04-19T07:28:15;102820.91;;;10.80;93.24
12969;BME280;6549;53.128;8.182;2023-04-19T07:31:17;102815.44;;;11.13;88.06
12969;BME280;6549;53.128;8.182;2023-04-19T07:34:17;102821.47;;;11.39;88.21
12969;BME280;6549;53.128;8.182;2023-04-19T07:37:18;102811.28;;;11.07;83.91
12969;BME280;6549;53.128;8.182;2023-04-19T07:40:18;102812.41;;;10.73;86.10
12969;BME280;6549;53.128;8.182;2023-04-19T07:43:19;102812.38;;;10.61;85.92
12969;BME280;6549;53.128;8.182;2023-04-19T07:46:19;102814.97;;;10.57;85.72
12969;BME280;6549;53.128;8.182;2023-04-19T07:49:20;102807.94;;;11.34;86.16
12969;BME280;6549;53.128;8.182;2023-04-19T07:52:20;102808.78;;;11.59;83.42
12969;BME280;6549;53.128;8.182;2023-04-19T07:55:21;102811.56;;;11.83;79.70
12969;BME280;6549;53.128;8.182;2023-04-19T07:58:21;102803.50;;;11.66;79.10
12969;BME280;6549;53.128;8.182;2023-04-19T08:01:21;102804.16;;;11.51;78.44
12969;BME280;6549;53.128;8.182;2023-04-19T08:04:22;102799.94;;;11.65;76.64
12969;BME280;6549;53.128;8.182;2023-04-19T08:07:22;102798.72;;;12.11;75.49
12969;BME280;6549;53.128;8.182;2023-04-19T08:10:23;102806.75;;;12.17;74.23
12969;BME280;6549;53.128;8.182;2023-04-19T08:13:23;102807.84;;;12.40;75.33
12969;BME280;6549;53.128;8.182;2023-04-19T08:16:23;102803.94;;;12.81;70.86
12969;BME280;6549;53.128;8.182;2023-04-19T08:19:24;102795.09;;;12.75;70.94
12969;BME280;6549;53.128;8.182;2023-04-19T08:22:24;102808.94;;;12.63;66.14
12969;BME280;6549;53.128;8.182;2023-04-19T08:25:25;102806.44;;;12.86;70.42
12969;BME280;6549;53.128;8.182;2023-04-19T08:28:27;102795.06;;;12.87;66.97
12969;BME280;6549;53.128;8.182;2023-04-19T08:31:27;102794.75;;;13.04;67.41
12969;BME280;6549;53.128;8.182;2023-04-19T08:34:28;102790.72;;;13.14;68.89
12969;BME280;6549;53.128;8.182;2023-04-19T08:37:28;102792.88;;;13.52;66.50
12969;BME280;6549;53.128;8.182;2023-04-19T08:40:29;102786.88;;;12.63;64.64
12969;BME280;6549;53.128;8.182;2023-04-19T08:43:34;102782.34;;;13.26;63.69
12969;BME280;6549;53.128;8.182;2023-04-19T08:46:36;102782.31;;;12.83;66.77
12969;BME280;6549;53.128;8.182;2023-04-19T08:49:38;102776.78;;;13.11;63.02
12969;BME280;6549;53.128;8.182;2023-04-19T08:52:39;102780.56;;;13.34;62.80
12969;BME280;6549;53.128;8.182;2023-04-19T08:55:40;102774.78;;;12.95;62.01
12969;BME280;6549;53.128;8.182;2023-04-19T08:58:41;102774.50;;;13.28;63.13
12969;BME280;6549;53.128;8.182;2023-04-19T09:01:42;102773.47;;;13.48;61.72
12969;BME280;6549;53.128;8.182;2023-04-19T09:04:42;102763.81;;;13.27;60.00
12969;BME280;6549;53.128;8.182;2023-04-19T09:07:43;102764.63;;;13.43;61.99
12969;BME280;6549;53.128;8.182;2023-04-19T09:10:58;102766.00;;;14.00;60.96
12969;BME280;6549;53.128;8.182;2023-04-19T09:14:07;102759.94;;;13.94;58.99
12969;BME280;6549;53.128;8.182;2023-04-19T09:17:17;102744.97;;;14.49;57.40
12969;BME280;6549;53.128;8.182;2023-04-19T09:20:34;102734.09;;;14.79;53.75
12969;BME280;6549;53.128;8.182;2023-04-19T09:23:45;102749.78;;;14.52;50.68
12969;BME280;6549;53.128;8.182;2023-04-19T09:26:54;102730.84;;;14.73;52.98
12969;BME280;6549;53.128;8.182;2023-04-19T09:29:59;102742.91;;;14.27;50.44
12969;BME280;6549;53.128;8.182;2023-04-19T09:33:00;102742.78;;;14.39;50.86
12969;BME280;6549;53.128;8.182;2023-04-19T09:36:01;102732.56;;;14.24;51.33
12969;BME280;6549;53.128;8.182;2023-04-19T09:39:01;102715.00;;;13.97;52.05
12969;BME280;6549;53.128;8.182;2023-04-19T09:42:01;102711.31;;;14.28;53.22
12969;BME280;6549;53.128;8.182;2023-04-19T09:45:02;102717.84;;;14.55;50.73
12969;BME280;6549;53.128;8.182;2023-04-19T09:48:05;102714.97;;;13.78;47.13
12969;BME280;6549;53.128;8.182;2023-04-19T09:51:08;102714.41;;;13.88;46.85
12969;BME280;6549;53.128;8.182;2023-04-19T09:54:11;102711.97;;;13.52;47.74
12969;BME280;6549;53.128;8.182;2023-04-19T09:57:11;102701.81;;;13.56;47.21
12969;BME280;6549;53.128;8.182;2023-04-19T10:00:12;102699.72;;;14.03;48.54
12969;BME280;6549;53.128;8.182;2023-04-19T10:03:15;102690.75;;;14.64;49.26
12969;BME280;6549;53.128;8.182;2023-04-19T10:06:19;102691.38;;;14.76;46.34
12969;BME280;6549;53.128;8.182;2023-04-19T10:09:21;102690.75;;;14.64;46.28
12969;BME280;6549;53.128;8.182;2023-04-19T10:12:25;102692.19;;;15.00;45.71
12969;BME280;6549;53.128;8.182;2023-04-19T10:15:26;102677.59;;;14.03;47.24
12969;BME280;6549;53.128;8.182;2023-04-19T10:18:28;102679.66;;;14.25;47.58
12969;BME280;6549;53.128;8.182;2023-04-19T10:21:29;102681.94;;;14.58;46.91
12969;BME280;6549;53.128;8.182;2023-04-19T10:24:30;102674.50;;;14.43;46.47
12969;BME280;6549;53.128;8.182;2023-04-19T10:27:33;102668.84;;;14.55;47.77
12969;BME280;6549;53.128;8.182;2023-04-19T10:30:33;102661.09;;;14.64;46.82
12969;BME280;6549;53.128;8.182;2023-04-19T10:33:35;102663.41;;;14.81;46.51
12969;BME280;6549;53.128;8.182;2023-04-19T10:36:36;102655.50;;;14.83;48.93
12969;BME280;6549;53.128;8.182;2023-04-19T10:39:43;102643.84;;;14.94;47.37
12969;BME280;6549;53.128;8.182;2023-04-19T10:43:13;102640.81;;;15.02;47.18
12969;BME280;6549;53.128;8.182;2023-04-19T10:49:22;102619.16;;;15.57;45.96
12969;BME280;6549;53.128;8.182;2023-04-19T10:52:26;102624.25;;;15.85;48.88
12969;BME280;6549;53.128;8.182;2023-04-19T10:55:32;102611.81;;;15.71;47.65
12969;BME280;6549;53.128;8.182;2023-04-19T11:02:25;102597.88;;;16.31;44.19
12969;BME280;6549;53.128;8.182;2023-04-19T11:05:27;102602.34;;;15.76;43.24
12969;BME280;6549;53.128;8.182;2023-04-19T11:08:27;102588.09;;;15.48;43.62
12969;BME280;6549;53.128;8.182;2023-04-19T11:11:27;102596.44;;;15.21;46.30
12969;BME280;6549;53.128;8.182;2023-04-19T11:14:30;102579.06;;;15.51;47.08
12969;BME280;6549;53.128;8.182;2023-04-19T11:17:31;102581.09;;;15.84;44.54
12969;BME280;6549;53.128;8.182;2023-04-19T11:20:31;102575.66;;;15.35;42.75
12969;BME280;6549;53.128;8.182;2023-04-19T11:23:31;102565.28;;;15.58;43.65
12969;BME280;6549;53.128;8.182;2023-04-19T11:26:32;102559.50;;;15.14;43.47
12969;BME280;6549;53.128;8.182;2023-04-19T11:29:32;102555.06;;;15.36;43.56
12969;BME280;6549;53.128;8.182;2023-04-19T11:32:33;102550.59;;;15.27;43.82
12969;BME280;6549;53.128;8.182;2023-04-19T11:35:34;102532.13;;;15.61;44.35
12969;BME280;6549;53.128;8.182;2023-04-19T11:38:35;102528.53;;;15.61;42.37
12969;BME280;6549;53.128;8.182;2023-04-19T11:41:38;102524.75;;;15.76;43.73
12969;BME280;6549;53.128;8.182;2023-04-19T11:44:38;102528.28;;;16.06;41.56
12969;BME280;6549;53.128;8.182;2023-04-19T11:47:48;102519.06;;;15.62;42.41
12969;BME280;6549;53.128;8.182;2023-04-19T11:50:49;102539.53;;;15.54;43.37
12969;BME280;6549;53.128;8.182;2023-04-19T11:53:49;102525.63;;;15.24;42.10
12969;BME280;6549;53.128;8.182;2023-04-19T11:56:57;102514.28;;;15.33;43.41
12969;BME280;6549;53.128;8.182;2023-04-19T12:03:04;102511.44;;;15.55;43.02
12969;BME280;6549;53.128;8.182;2023-04-19T12:06:05;102503.59;;;15.61;41.98
12969;BME280;6549;53.128;8.182;2023-04-19T12:09:09;102499.16;;;15.90;41.74
12969;BME280;6549;53.128;8.182;2023-04-19T12:12:09;102513.56;;;15.65;42.88
12969;BME280;6549;53.128;8.182;2023-04-19T12:15:10;102502.28;;;15.51;41.72
12969;BME280;6549;53.128;8.182;2023-04-19T12:18:10;102489.78;;;15.35;42.39
12969;BME280;6549;53.128;8.182;2023-04-19T12:21:23;102476.50;;;15.81;42.92
12969;BME280;6549;53.128;8.182;2023-04-19T12:24:24;102483.78;;;15.96;40.81
12969;BME280;6549;53.128;8.182;2023-04-19T12:27:25;102474.94;;;15.83;41.82
12969;BME280;6549;53.128;8.182;2023-04-19T12:30:25;102489.31;;;15.92;40.55
12969;BME280;6549;53.128;8.182;2023-04-19T12:33:25;102473.53;;;16.00;40.33
12969;BME280;6549;53.128;8.182;2023-04-19T12:36:26;102480.59;;;15.94;39.66
12969;BME280;6549;53.128;8.182;2023-04-19T12:39:27;102474.47;;;15.74;40.55
12969;BME280;6549;53.128;8.182;2023-04-19T12:42:27;102477.97;;;15.41;40.19
12969;BME280;6549;53.128;8.182;2023-04-19T12:45:28;102476.19;;;15.52;39.34
12969;BME280;6549;53.128;8.182;2023-04-19T12:48:28;102462.59;;;15.44;39.79
12969;BME280;6549;53.128;8.182;2023-04-19T12:51:29;102474.00;;;15.68;39.61
12969;BME280;6549;53.128;8.182;2023-04-19T12:54:29;102459.06;;;15.80;39.05
12969;BME280;6549;53.128;8.182;2023-04-19T12:57:29;102462.44;;;15.63;38.76
12969;BME280;6549;53.128;8.182;2023-04-19T13:00:30;102453.16;;;15.48;38.61
12969;BME280;6549;53.128;8.182;2023-04-19T13:03:30;102453.88;;;15.45;38.99
12969;BME280;6549;53.128;8.182;2023-04-19T13:06:32;102446.44;;;15.83;39.21
12969;BME280;6549;53.128;8.182;2023-04-19T13:09:32;102451.84;;;15.39;37.06
12969;BME280;6549;53.128;8.182;2023-04-19T13:12:32;102440.34;;;15.37;36.45
12969;BME280;6549;53.128;8.182;2023-04-19T13:15:33;102433.72;;;15.78;36.53
12969;BME280;6549;53.128;8.182;2023-04-19T13:18:33;102442.06;;;15.48;35.84
12969;BME280;6549;53.128;8.182;2023-04-19T13:21:34;102425.81;;;15.47;37.42
12969;BME280;6549;53.128;8.182;2023-04-19T13:24:34;102427.19;;;15.60;37.32
12969;BME280;6549;53.128;8.182;2023-04-19T13:27:35;102418.50;;;15.61;36.20
12969;BME280;6549;53.128;8.182;2023-04-19T13:30:35;102419.88;;;15.82;34.73
12969;BME280;6549;53.128;8.182;2023-04-19T13:33:35;102426.25;;;15.49;34.07
12969;BME280;6549;53.128;8.182;2023-04-19T13:36:36;102409.31;;;15.24;34.30
12969;BME280;6549;53.128;8.182;2023-04-19T13:39:36;102403.53;;;15.03;35.01
12969;BME280;6549;53.128;8.182;2023-04-19T13:42:37;102406.91;;;15.22;33.54
12969;BME280;6549;53.128;8.182;2023-04-19T13:45:37;102413.59;;;15.18;33.47
12969;BME280;6549;53.128;8.182;2023-04-19T13:48:37;102415.66;;;15.24;32.88
12969;BME280;6549;53.128;8.182;2023-04-19T13:51:38;102416.00;;;14.90;32.96
12969;BME280;6549;53.128;8.182;2023-04-19T13:54:38;102395.81;;;15.19;33.75
12969;BME280;6549;53.128;8.182;2023-04-19T13:57:38;102380.13;;;15.30;33.32
12969;BME280;6549;53.128;8.182;2023-04-19T14:00:39;102407.31;;;15.21;32.91
12969;BME280;6549;53.128;8.182;2023-04-19T14:03:39;102399.56;;;15.34;33.27
12969;BME280;6549;53.128;8.182;2023-04-19T14:06:39;102387.16;;;15.24;33.21
12969;BME280;6549;53.128;8.182;2023-04-19T14:09:40;102388.31;;;15.53;34.67
12969;BME280;6549;53.128;8.182;2023-04-19T14:12:41;102383.75;;;15.38;35.52
12969;BME280;6549;53.128;8.182;2023-04-19T14:15:41;102366.28;;;15.30;35.11
12969;BME280;6549;53.128;8.182;2023-04-19T14:18:42;102383.72;;;15.01;35.54
12969;BME280;6549;53.128;8.182;2023-04-19T14:21:42;102383.72;;;15.01;35.24
12969;BME280;6549;53.128;8.182;2023-04-19T14:24:42;102380.25;;;14.77;34.80
12969;BME280;6549;53.128;8.182;2023-04-19T14:27:43;102361.38;;;15.16;36.57
12969;BME280;6549;53.128;8.182;2023-04-19T14:30:43;102353.47;;;15.52;36.48
12969;BME280;6549;53.128;8.182;2023-04-19T14:33:43;102367.09;;;15.01;35.83
12969;BME280;6549;53.128;8.182;2023-04-19T14:36:43;102359.16;;;14.69;35.54
12969;BME280;6549;53.128;8.182;2023-04-19T14:39:45;102362.69;;;14.66;35.80
12969;BME280;6549;53.128;8.182;2023-04-19T14:42:46;102364.91;;;14.54;34.47
12969;BME280;6549;53.128;8.182;2023-04-19T14:45:47;102360.44;;;14.46;34.89
12969;BME280;6549;53.128;8.182;2023-04-19T14:48:48;102355.91;;;14.60;35.77
12969;BME280;6549;53.128;8.182;2023-04-19T14:51:50;102358.00;;;14.70;35.24
12969;BME280;6549;53.128;8.182;2023-04-19T14:54:51;102356.88;;;14.45;35.33
12969;BME280;6549;53.128;8.182;2023-04-19T14:57:51;102342.28;;;14.48;34.80
12969;BME280;6549;53.128;8.182;2023-04-19T15:00:51;102351.66;;;14.40;34.50
12969;BME280;6549;53.128;8.182;2023-04-19T15:03:53;102351.88;;;14.54;34.81
12969;BME280;6549;53.128;8.182;2023-04-19T15:06:53;102347.53;;;14.57;35.02
12969;BME280;6549;53.128;8.182;2023-04-19T15:09:53;102356.81;;;13.92;34.45
12969;BME280;6549;53.128;8.182;2023-04-19T15:12:54;102357.16;;;14.14;34.38
12969;BME280;6549;53.128;8.182;2023-04-19T15:15:54;102357.38;;;14.28;33.64
12969;BME280;6549;53.128;8.182;2023-04-19T15:18:55;102360.00;;;14.21;33.24
12969;BME280;6549;53.128;8.182;2023-04-19T15:21:55;102360.00;;;14.21;33.55
12969;BME280;6549;53.128;8.182;2023-04-19T15:25:32;102362.75;;;13.94;33.34
12969;BME280;6549;53.128;8.182;2023-04-19T15:28:56;102355.31;;;13.53;33.43
12969;BME280;6549;53.128;8.182;2023-04-19T15:31:57;102360.31;;;13.67;34.56
12969;BME280;6549;53.128;8.182;2023-04-19T15:35:09;102360.97;;;13.60;34.58
12969;BME280;6549;53.128;8.182;2023-04-19T15:38:10;102368.66;;;13.70;33.93
12969;BME280;6549;53.128;8.182;2023-04-19T15:41:10;102362.56;;;13.61;34.62
12969;BME280;6549;53.128;8.182;2023-04-19T15:44:11;102358.13;;;13.34;34.17
12969;BME280;6549;53.128;8.182;2023-04-19T15:47:12;102358.38;;;13.48;34.17
12969;BME280;6549;53.128;8.182;2023-04-19T15:50:12;102366.22;;;13.46;33.35
12969;BME280;6549;53.128;8.182;2023-04-19T15:53:13;102369.03;;;13.27;33.67
12969;BME280;6549;53.128;8.182;2023-04-19T15:56:13;102382.53;;;13.32;32.30
12969;BME280;6549;53.128;8.182;2023-04-19T15:59:13;102378.75;;;13.21;31.52
12969;BME280;6549;53.128;8.182;2023-04-19T16:02:14;102374.47;;;13.23;32.77
12969;BME280;6549;53.128;8.182;2023-04-19T16:05:14;102382.44;;;13.28;32.15
12969;BME280;6549;53.128;8.182;2023-04-19T16:08:15;102383.16;;;12.87;32.13
12969;BME280;6549;53.128;8.182;2023-04-19T16:11:18;102387.41;;;12.65;31.43